Lithia, Virginia
Current Conditions -  °F | °C
As of 10:54 AM on Thursday 18 Dec 2014 (Local Time) from KROA Reporting Station
Overcast Overcast  
Wind Chill: 29°   Ceiling: 16000
Heat Index: 36°   Visibility: 10mi
Dew Point: 21°   Wind: 8mph
Humidity: 56%   Direction: 280°W
Pressure: 30.19"   Gusts: NA
Location:  37.5115°N, 79.6704°W
Report Text: KROA 181554Z 28007KT 10SM FEW130 OVC160 02/M06 A3019
Loading
Personal Weather Stations






























Interactive Weather Map New forecast layout! Learn more

10-Day Weather Forecast

Advertisements
Track Severe Weather on mobile